createdAt,value
2018-07-31T00:01:29.637Z,99992.64
2018-07-31T00:04:28.148Z,99996.55
2018-07-31T00:07:26.620Z,99993.26
2018-07-31T00:10:24.897Z,99994.86
2018-07-31T00:13:23.578Z,99990.03
2018-07-31T00:16:23.266Z,99988.87
2018-07-31T00:19:21.914Z,99987.08
2018-07-31T00:22:21.424Z,99990.75
2018-07-31T00:25:19.473Z,99989.20
2018-07-31T00:28:18.160Z,99991.11
2018-07-31T00:31:16.267Z,99992.89
2018-07-31T00:34:14.883Z,99993.98
2018-07-31T00:37:13.137Z,99989.95
2018-07-31T00:40:12.454Z,99986.39
2018-07-31T00:43:10.764Z,99996.83
2018-07-31T00:46:08.972Z,99992.20
2018-07-31T00:49:08.852Z,99992.75
2018-07-31T00:52:07.132Z,99996.08
2018-07-31T00:55:05.176Z,99992.02
2018-07-31T00:58:04.684Z,99993.63
2018-07-31T01:01:03.966Z,99995.16
2018-07-31T01:04:02.348Z,99997.82
2018-07-31T01:07:00.517Z,100001.48
2018-07-31T01:09:58.155Z,99993.42
2018-07-31T01:12:56.547Z,100001.73
2018-07-31T01:15:55.360Z,100003.33
2018-07-31T01:18:53.462Z,100005.44
2018-07-31T01:21:53.131Z,100004.78
2018-07-31T01:24:51.715Z,100003.06
2018-07-31T01:27:50.872Z,100000.63
2018-07-31T01:30:49.167Z,99999.41
2018-07-31T01:33:47.665Z,99992.84
2018-07-31T01:36:46.008Z,99991.50
2018-07-31T01:39:44.070Z,99983.36
2018-07-31T01:42:42.376Z,99972.98
2018-07-31T01:45:40.350Z,99978.97
2018-07-31T01:48:39.770Z,99986.15
2018-07-31T01:51:38.151Z,99984.08
2018-07-31T01:54:36.528Z,99976.77
2018-07-31T01:57:34.393Z,99971.55
2018-07-31T02:00:33.388Z,99975.58
2018-07-31T02:03:31.840Z,99976.02
2018-07-31T02:06:34.291Z,99969.31
2018-07-31T02:09:33.129Z,99970.91
2018-07-31T02:12:31.241Z,99975.46
2018-07-31T02:15:29.627Z,99971.55
2018-07-31T02:18:27.952Z,99970.58
2018-07-31T02:21:26.239Z,99973.75
2018-07-31T02:24:25.509Z,99971.91
2018-07-31T02:27:23.789Z,99964.97
2018-07-31T02:30:29.289Z,99964.86
2018-07-31T02:33:27.512Z,99963.52
2018-07-31T02:36:25.615Z,99959.38
2018-07-31T02:39:23.838Z,99956.60
2018-07-31T02:42:21.900Z,99960.63
2018-07-31T02:45:23.115Z,99969.91
2018-07-31T02:48:22.388Z,99968.48
2018-07-31T02:51:20.464Z,99971.77
2018-07-31T02:54:18.910Z,99972.50
2018-07-31T02:57:17.485Z,99969.70
2018-07-31T03:00:16.566Z,99974.70
2018-07-31T03:03:14.988Z,99970.27
2018-07-31T03:06:13.098Z,99969.36
2018-07-31T03:09:12.487Z,99974.86
2018-07-31T03:12:10.948Z,99973.62
2018-07-31T03:15:09.325Z,99969.60
2018-07-31T03:18:07.799Z,99968.02
2018-07-31T03:21:07.116Z,99968.63
2018-07-31T03:24:06.521Z,99968.38
2018-07-31T03:27:04.840Z,99966.19
2018-07-31T03:30:02.888Z,99965.45
2018-07-31T03:33:00.923Z,99972.30
2018-07-31T03:35:59.953Z,99963.63
2018-07-31T03:38:57.996Z,99970.39
2018-07-31T03:41:56.466Z,99962.58
2018-07-31T03:44:55.748Z,99967.42
2018-07-31T03:47:55.030Z,99966.19
2018-07-31T03:50:53.196Z,99959.36
2018-07-31T03:53:51.340Z,99962.23
2018-07-31T03:56:49.594Z,99950.27
2018-07-31T03:59:47.564Z,99964.92
2018-07-31T04:02:45.780Z,99970.16
2018-07-31T04:05:44.005Z,99962.36
2018-07-31T04:08:42.355Z,99962.59
2018-07-31T04:11:41.282Z,99968.58
2018-07-31T04:14:39.604Z,99963.59
2018-07-31T04:17:41.045Z,99967.44
2018-07-31T04:20:39.287Z,99969.63
2018-07-31T04:23:38.693Z,99968.27
2018-07-31T04:26:36.771Z,99971.39
2018-07-31T04:29:35.321Z,99961.53
2018-07-31T04:32:33.704Z,99969.55
2018-07-31T04:35:31.964Z,99969.46
2018-07-31T04:38:30.149Z,99970.72
2018-07-31T04:41:28.290Z,99964.95
2018-07-31T04:44:28.729Z,99968.39
2018-07-31T04:47:27.989Z,99961.92
2018-07-31T04:50:26.476Z,99960.00
2018-07-31T04:53:24.876Z,99959.75
2018-07-31T04:56:24.074Z,99954.02
2018-07-31T04:59:23.873Z,99964.51
2018-07-31T05:02:22.509Z,99970.47
2018-07-31T05:05:20.441Z,99987.46
2018-07-31T05:08:18.878Z,99990.23
2018-07-31T05:11:16.999Z,99989.58
2018-07-31T05:14:17.402Z,99983.19
2018-07-31T05:17:15.768Z,99983.80
2018-07-31T05:20:15.159Z,99981.72
2018-07-31T05:23:14.532Z,99974.09
2018-07-31T05:26:12.766Z,99978.45
2018-07-31T05:29:12.401Z,99986.13
2018-07-31T05:32:10.879Z,99981.69
2018-07-31T05:35:10.479Z,99979.63
2018-07-31T05:38:08.710Z,99988.52
2018-07-31T05:41:07.265Z,99988.56
2018-07-31T05:44:06.465Z,99994.89
2018-07-31T05:47:04.217Z,99994.48
2018-07-31T05:50:02.870Z,99994.34
2018-07-31T05:53:00.881Z,100005.45
2018-07-31T05:55:59.032Z,100015.16
2018-07-31T05:59:00.508Z,100013.80
2018-07-31T06:01:59.045Z,100012.95
2018-07-31T06:04:57.278Z,100008.97
2018-07-31T06:07:55.480Z,100001.27
2018-07-31T06:10:54.836Z,100008.13
2018-07-31T06:13:53.427Z,100008.59
2018-07-31T06:16:51.676Z,100006.81
2018-07-31T06:19:49.872Z,99997.24
2018-07-31T06:22:49.019Z,99996.92
2018-07-31T06:25:47.339Z,100007.27
2018-07-31T06:28:45.572Z,100003.77
2018-07-31T06:31:43.724Z,99999.08
2018-07-31T06:34:42.105Z,100000.08
2018-07-31T06:37:41.394Z,99994.02
2018-07-31T06:40:39.638Z,99994.00
2018-07-31T06:43:37.969Z,99993.67
2018-07-31T06:46:38.311Z,99990.30
2018-07-31T06:49:36.692Z,99984.22
2018-07-31T06:52:35.565Z,99987.58
2018-07-31T06:55:33.752Z,99988.60
2018-07-31T06:58:32.302Z,99993.66
2018-07-31T07:01:30.477Z,99992.82
2018-07-31T07:04:29.639Z,99994.48
2018-07-31T07:07:28.567Z,99998.38
2018-07-31T07:10:26.671Z,99996.00
2018-07-31T07:13:25.996Z,99998.03
2018-07-31T07:16:24.662Z,100001.72
2018-07-31T07:19:23.140Z,100006.63
2018-07-31T07:22:22.404Z,99998.98
2018-07-31T07:25:20.743Z,100003.86
2018-07-31T07:28:18.720Z,100005.89
2018-07-31T07:31:17.122Z,99996.88
2018-07-31T07:34:16.364Z,99999.75
2018-07-31T07:37:14.665Z,99998.50
2018-07-31T07:40:14.279Z,99999.16
2018-07-31T07:43:12.412Z,100002.16
2018-07-31T07:46:10.560Z,99996.04
2018-07-31T07:49:10.736Z,99994.26
2018-07-31T07:52:09.872Z,99989.16
2018-07-31T07:55:08.029Z,99992.13
2018-07-31T07:58:06.293Z,100002.28
2018-07-31T08:01:06.511Z,99993.37
2018-07-31T08:04:05.306Z,100004.70
2018-07-31T08:07:03.343Z,100007.52
2018-07-31T08:10:01.493Z,100009.00
2018-07-31T08:13:00.483Z,100016.35
2018-07-31T08:16:05.907Z,100007.28
2018-07-31T08:19:04.701Z,100014.27
2018-07-31T08:22:03.144Z,100008.45
2018-07-31T08:25:01.225Z,100010.44
2018-07-31T08:27:59.309Z,100012.17
2018-07-31T08:30:58.341Z,100012.39
2018-07-31T08:33:56.675Z,100017.44
2018-07-31T08:36:54.981Z,100011.62
2018-07-31T08:39:52.928Z,100002.89
2018-07-31T08:42:52.153Z,100010.06
2018-07-31T08:45:50.605Z,100015.11
2018-07-31T08:48:48.589Z,100015.01
2018-07-31T08:51:46.596Z,100007.81
2018-07-31T08:54:44.993Z,100013.83
2018-07-31T08:57:44.280Z,100009.66
2018-07-31T09:00:42.961Z,100006.11
2018-07-31T09:03:40.890Z,100009.69
2018-07-31T09:06:39.387Z,100013.06
2018-07-31T09:09:39.171Z,100001.80
2018-07-31T09:12:37.657Z,100003.75
2018-07-31T09:15:36.334Z,100010.49
2018-07-31T09:18:35.684Z,100003.67
2018-07-31T09:21:34.166Z,99999.31
2018-07-31T09:24:32.509Z,100002.86
2018-07-31T09:27:30.803Z,100001.04
2018-07-31T09:30:28.874Z,100006.70
2018-07-31T09:33:27.424Z,100002.16
2018-07-31T09:36:26.063Z,100003.31
2018-07-31T09:39:31.238Z,99997.52
2018-07-31T09:42:29.659Z,99998.95
2018-07-31T09:45:27.604Z,99993.00
2018-07-31T09:48:27.081Z,99991.56
2018-07-31T09:51:25.093Z,99988.20
2018-07-31T09:54:23.337Z,99984.92
2018-07-31T09:57:21.264Z,99997.41
2018-07-31T10:00:24.373Z,99985.64
2018-07-31T10:03:22.757Z,99995.08
2018-07-31T10:06:21.769Z,99988.97
2018-07-31T10:09:22.687Z,99989.66
2018-07-31T10:12:21.168Z,99988.72
2018-07-31T10:15:19.127Z,99978.49
2018-07-31T10:18:17.361Z,99983.25
2018-07-31T10:21:15.423Z,99977.87
2018-07-31T10:24:13.513Z,99976.47
2018-07-31T10:27:11.764Z,99979.84
2018-07-31T10:30:10.125Z,99976.89
2018-07-31T10:33:08.836Z,99964.09
2018-07-31T10:36:07.744Z,99964.89
2018-07-31T10:39:06.454Z,99970.58
2018-07-31T10:42:05.541Z,99966.38
2018-07-31T10:45:03.604Z,99969.95
2018-07-31T10:48:01.883Z,99969.47
2018-07-31T10:50:59.750Z,99967.80
2018-07-31T10:53:58.305Z,99962.52
2018-07-31T10:56:57.917Z,99963.33
2018-07-31T10:59:55.685Z,99958.77
2018-07-31T11:02:54.113Z,99953.16
2018-07-31T11:05:52.333Z,99960.67
2018-07-31T11:08:50.428Z,99950.33
2018-07-31T11:11:49.459Z,99951.14
2018-07-31T11:14:47.784Z,99946.28
2018-07-31T11:17:45.800Z,99939.92
2018-07-31T11:20:44.857Z,99940.95
2018-07-31T11:23:43.059Z,99938.03
2018-07-31T11:26:41.127Z,99945.56
2018-07-31T11:29:39.941Z,99945.81
2018-07-31T11:32:38.116Z,99939.78
2018-07-31T11:35:36.568Z,99940.50
2018-07-31T11:38:35.463Z,99936.44
2018-07-31T11:41:33.530Z,99928.25
2018-07-31T11:44:32.623Z,99918.11
2018-07-31T11:47:33.304Z,99919.88
2018-07-31T11:50:31.660Z,99915.91
2018-07-31T11:53:29.577Z,99918.58
2018-07-31T11:56:27.374Z,99927.03
2018-07-31T11:59:25.651Z,99924.30
2018-07-31T12:02:26.459Z,99920.73
2018-07-31T12:05:26.857Z,99925.72
2018-07-31T12:08:26.166Z,99906.98
2018-07-31T12:11:24.674Z,99902.63
2018-07-31T12:14:23.698Z,99901.02
2018-07-31T12:17:21.983Z,99892.50
2018-07-31T12:20:20.866Z,99890.16
2018-07-31T12:23:18.586Z,99887.81
2018-07-31T12:26:16.968Z,99886.30
2018-07-31T12:29:15.251Z,99895.27
2018-07-31T12:32:13.303Z,99891.31
2018-07-31T12:35:11.152Z,99892.42
2018-07-31T12:38:09.530Z,99899.86
2018-07-31T12:41:07.592Z,99893.16
2018-07-31T12:44:06.980Z,99892.17
2018-07-31T12:47:05.248Z,99885.66
2018-07-31T12:50:04.553Z,99876.25
2018-07-31T12:53:02.800Z,99874.34
2018-07-31T12:56:02.051Z,99885.52
2018-07-31T12:59:00.884Z,99884.84
2018-07-31T13:01:59.322Z,99874.59
2018-07-31T13:04:57.689Z,99882.52
2018-07-31T13:07:55.472Z,99870.43
2018-07-31T13:10:53.620Z,99865.34
2018-07-31T13:13:51.654Z,99866.17
2018-07-31T13:16:49.627Z,99860.41
2018-07-31T13:19:48.688Z,99856.88
2018-07-31T13:22:46.709Z,99853.18
2018-07-31T13:25:46.537Z,99855.99
2018-07-31T13:28:44.272Z,99852.05
2018-07-31T13:31:42.560Z,99854.88
2018-07-31T13:34:40.900Z,99854.05
2018-07-31T13:37:38.886Z,99855.78
2018-07-31T13:40:37.377Z,99856.81
2018-07-31T13:43:35.865Z,99864.48
2018-07-31T13:46:34.352Z,99854.30
2018-07-31T13:49:33.713Z,99850.53
2018-07-31T13:52:31.775Z,99843.72
2018-07-31T13:55:29.941Z,99841.89
2018-07-31T13:58:27.992Z,99853.12
2018-07-31T14:01:26.578Z,99848.69
2018-07-31T14:04:25.265Z,99845.77
2018-07-31T14:07:23.473Z,99853.30
2018-07-31T14:10:21.709Z,99848.28
2018-07-31T14:13:19.644Z,99842.12
2018-07-31T14:16:17.897Z,99857.47
2018-07-31T14:19:16.093Z,99857.63
2018-07-31T14:22:15.462Z,99852.25
2018-07-31T14:25:13.895Z,99847.36
2018-07-31T14:28:11.975Z,99852.73
2018-07-31T14:31:09.913Z,99843.97
2018-07-31T14:34:09.156Z,99838.98
2018-07-31T14:37:07.374Z,99838.93
2018-07-31T14:40:05.552Z,99838.43
2018-07-31T14:43:03.984Z,99832.69
2018-07-31T14:46:10.406Z,99828.27
2018-07-31T14:49:09.268Z,99828.50
2018-07-31T14:52:07.902Z,99833.18
2018-07-31T14:55:06.580Z,99827.72
2018-07-31T14:58:06.307Z,99836.86
2018-07-31T15:01:04.442Z,99832.16
2018-07-31T15:04:03.850Z,99835.22
2018-07-31T15:07:02.297Z,99836.34
2018-07-31T15:10:00.730Z,99835.98
2018-07-31T15:12:59.401Z,99831.89
2018-07-31T15:15:58.182Z,99834.66
2018-07-31T15:18:56.312Z,99841.34
2018-07-31T15:21:55.033Z,99842.61
2018-07-31T15:24:53.256Z,99840.11
2018-07-31T15:27:51.815Z,99838.36
2018-07-31T15:30:50.472Z,99843.36
2018-07-31T15:33:48.540Z,99834.27
2018-07-31T15:36:46.970Z,99835.15
2018-07-31T15:39:45.302Z,99838.05
2018-07-31T15:42:43.621Z,99836.61
2018-07-31T15:45:41.584Z,99839.67
2018-07-31T15:48:41.408Z,99833.23
2018-07-31T15:51:40.913Z,99831.00
2018-07-31T15:54:40.664Z,99837.67
2018-07-31T15:57:39.084Z,99839.39
2018-07-31T16:00:38.202Z,99843.59
2018-07-31T16:03:36.861Z,99845.77
2018-07-31T16:06:35.399Z,99834.91
2018-07-31T16:09:35.137Z,99838.52
2018-07-31T16:12:34.330Z,99834.38
2018-07-31T16:15:32.848Z,99837.46
2018-07-31T16:18:31.374Z,99828.30
2018-07-31T16:21:29.446Z,99836.53
2018-07-31T16:24:27.596Z,99837.69
2018-07-31T16:27:25.912Z,99835.75
2018-07-31T16:30:24.985Z,99830.19
2018-07-31T16:33:23.322Z,99826.29
2018-07-31T16:36:21.484Z,99830.12
2018-07-31T16:39:21.500Z,99832.40
2018-07-31T16:42:19.618Z,99826.72
2018-07-31T16:45:17.712Z,99824.13
2018-07-31T16:48:17.191Z,99833.89
2018-07-31T16:51:16.075Z,99834.25
2018-07-31T16:54:14.244Z,99841.22
2018-07-31T16:57:12.320Z,99834.20
2018-07-31T17:00:11.633Z,99843.84
2018-07-31T17:03:09.785Z,99840.77
2018-07-31T17:06:08.209Z,99840.38
2018-07-31T17:09:07.829Z,99837.03
2018-07-31T17:12:05.962Z,99837.72
2018-07-31T17:15:04.240Z,99836.70
2018-07-31T17:18:02.507Z,99841.31
2018-07-31T17:21:02.127Z,99837.20
2018-07-31T17:24:00.452Z,99837.47
2018-07-31T17:26:58.918Z,99840.28
2018-07-31T17:29:58.315Z,99847.38
2018-07-31T17:32:56.610Z,99849.27
2018-07-31T17:35:55.185Z,99848.20
2018-07-31T17:38:53.758Z,99846.28
2018-07-31T17:41:51.830Z,99851.95
2018-07-31T17:44:50.426Z,99853.50
2018-07-31T17:47:48.634Z,99860.61
2018-07-31T17:50:47.119Z,99873.38
2018-07-31T17:53:45.131Z,99872.49
2018-07-31T17:56:43.344Z,99880.39
2018-07-31T17:59:41.885Z,99884.92
2018-07-31T18:02:40.528Z,99883.56
2018-07-31T18:05:38.312Z,99884.08
2018-07-31T18:08:36.930Z,99901.37
2018-07-31T18:11:35.257Z,99904.45
2018-07-31T18:14:33.867Z,99898.92
2018-07-31T18:17:31.648Z,99908.41
2018-07-31T18:20:32.908Z,99911.04
2018-07-31T18:23:31.252Z,99911.53
2018-07-31T18:26:29.277Z,99920.87
2018-07-31T18:29:27.699Z,99931.76
2018-07-31T18:32:26.897Z,99932.87
2018-07-31T18:35:25.436Z,99941.00
2018-07-31T18:38:23.850Z,99948.95
2018-07-31T18:41:22.220Z,99959.97
2018-07-31T18:44:20.541Z,99968.78
2018-07-31T18:47:21.726Z,99974.63
2018-07-31T18:50:20.904Z,99972.89
2018-07-31T18:53:19.105Z,99985.96
2018-07-31T18:56:17.946Z,99974.31
2018-07-31T18:59:16.684Z,99990.56
2018-07-31T19:02:14.980Z,99988.80
2018-07-31T19:05:13.112Z,99999.59
2018-07-31T19:08:11.907Z,100000.17
2018-07-31T19:11:10.351Z,100002.33
2018-07-31T19:14:08.536Z,100005.61
2018-07-31T19:17:06.831Z,100003.78
2018-07-31T19:20:06.078Z,99999.45
2018-07-31T19:23:04.149Z,100000.31
2018-07-31T19:26:02.715Z,99998.15
2018-07-31T19:29:00.675Z,100006.73
2018-07-31T19:31:58.540Z,99999.00
2018-07-31T19:34:56.686Z,100003.09
2018-07-31T19:37:55.319Z,100000.92
2018-07-31T19:40:53.357Z,99995.03
2018-07-31T19:43:52.933Z,99995.70
2018-07-31T19:46:52.176Z,99995.55
2018-07-31T19:49:50.876Z,100000.11
2018-07-31T19:52:49.400Z,100002.48
2018-07-31T19:55:47.308Z,100010.80
2018-07-31T19:58:45.789Z,100004.67
2018-07-31T20:01:43.872Z,100004.81
2018-07-31T20:04:41.968Z,100003.91
2018-07-31T20:07:41.219Z,100003.72
2018-07-31T20:10:39.031Z,100001.16
2018-07-31T20:13:37.064Z,100005.17
2018-07-31T20:16:35.039Z,100001.07
2018-07-31T20:19:33.033Z,100006.58
2018-07-31T20:22:31.369Z,100005.45
2018-07-31T20:25:29.649Z,100004.27
2018-07-31T20:28:28.028Z,100006.12
2018-07-31T20:31:25.904Z,100003.56
2018-07-31T20:34:23.831Z,100009.45
2018-07-31T20:37:22.150Z,100007.38
2018-07-31T20:40:20.961Z,100002.97
2018-07-31T20:43:20.606Z,99997.62
2018-07-31T20:46:19.952Z,100014.80
2018-07-31T20:49:18.633Z,100010.55
2018-07-31T20:52:16.875Z,100013.60
2018-07-31T20:55:15.072Z,100013.57
2018-07-31T20:58:13.212Z,100012.33
2018-07-31T21:01:11.209Z,100019.47
2018-07-31T21:04:09.434Z,100025.38
2018-07-31T21:07:07.745Z,100021.31
2018-07-31T21:10:05.742Z,100016.61
2018-07-31T21:13:04.035Z,100016.75
2018-07-31T21:16:02.683Z,100019.26
2018-07-31T21:19:01.451Z,100014.75
2018-07-31T21:22:05.789Z,100013.86
2018-07-31T21:25:03.867Z,100018.12
2018-07-31T21:28:01.990Z,100021.32
2018-07-31T21:31:01.168Z,100026.09
2018-07-31T21:34:00.829Z,100021.34
2018-07-31T21:36:58.892Z,100019.76
2018-07-31T21:39:59.139Z,100018.05
2018-07-31T21:42:57.288Z,100020.75
2018-07-31T21:45:56.240Z,100020.40
2018-07-31T21:48:54.352Z,100023.05
2018-07-31T21:51:52.592Z,100021.47
2018-07-31T21:54:52.712Z,100025.38
2018-07-31T21:57:50.996Z,100030.48
2018-07-31T22:00:56.216Z,100029.77
2018-07-31T22:03:54.466Z,100029.92
2018-07-31T22:06:53.958Z,100025.66
2018-07-31T22:09:53.032Z,100024.95
2018-07-31T22:12:51.088Z,100033.55
2018-07-31T22:15:51.104Z,100027.59
2018-07-31T22:18:49.288Z,100028.59
2018-07-31T22:21:48.036Z,100036.87
2018-07-31T22:24:46.420Z,100033.91
2018-07-31T22:27:45.861Z,100036.30
2018-07-31T22:30:44.011Z,100033.56
2018-07-31T22:33:43.273Z,100034.63
2018-07-31T22:36:41.332Z,100038.81
2018-07-31T22:39:40.392Z,100038.17
2018-07-31T22:42:38.736Z,100035.94
2018-07-31T22:45:38.061Z,100025.33
2018-07-31T22:48:37.453Z,100020.88
2018-07-31T22:51:35.821Z,100012.22
2018-07-31T22:54:35.266Z,100019.31
2018-07-31T22:57:33.577Z,100020.09
2018-07-31T23:00:32.546Z,100024.41
2018-07-31T23:03:30.632Z,100027.73
2018-07-31T23:06:30.145Z,100024.24
2018-07-31T23:09:30.508Z,100017.45
2018-07-31T23:12:28.435Z,100030.06
2018-07-31T23:15:27.520Z,100024.39
2018-07-31T23:18:25.738Z,100028.70
2018-07-31T23:21:24.903Z,100024.45
2018-07-31T23:24:23.964Z,100021.94
2018-07-31T23:27:25.281Z,100016.23
2018-07-31T23:30:23.292Z,100011.91
2018-07-31T23:33:22.662Z,100015.02
2018-07-31T23:36:20.925Z,100018.56
2018-07-31T23:39:22.172Z,100016.55
2018-07-31T23:42:21.260Z,100019.02
2018-07-31T23:45:19.301Z,100027.95
2018-07-31T23:48:17.496Z,100022.92
2018-07-31T23:51:15.560Z,100022.47
2018-07-31T23:54:14.183Z,100026.15
2018-07-31T23:57:12.380Z,100033.70
